Other Surface Observations
Issued by NWS Missoula, MT

Home | Current Version | Previous Version | Text Only | Print | Product List | Glossary On
Versions: 1 2 3 4 5 6 7 8 9 10 11 12 13 14 15 16 17 18 19 20 21 22 23 24 25 26 27 28 29 30 31 32 33 34 35 36 37 38 39 40 41 42 43 44 45 46 47 48 49 50
830
SXUS55 KMSO 052103
OSOMSO
MONTANA AWOS SUMMARY
NATIONAL WEATHER SERVICE MISSOULA MT
303 PM MDT THU MAY 5 2016

Montana AWOS Reports

ROUNDUP     |KRPX 052055Z AUTO 21010G16KT 5SM HZ 29/01 A2980 RMK AO1 T02890011
SCOBEY      |K9S2 052055Z AUTO 26014G18KT 40SM 31/02 A2979 RMK AO1 T03060017
PLAINS      |KS34 052055Z AUTO 00000KT 25SM 26/09 A2986 RMK AO1 T02560094
TWIN BRIDGES|K7S1 052055Z AUTO 00000KT 40SM 24/01 A2992 RMK AO1 T02440006
LAUREL      |K6S8 052055Z AUTO 00000KT 40SM 28/03 A2989 RMK AO1 T02780028




USA.gov is the U.S. government's official web portal to all federal, state and local government web resources and services.